INFORMAÇÕES METEOROLÓGICAS
METAR FOR SBIH
ADDS - METARS form results

(0228 UTC 25 April 2019)
Data provider http://aviationweather.gov/metar/data/
 
Forecast for: SBIH (ITAITUBA , BR)
Text: TAF SBIH 242200Z 2500/2512 11004KT 9999 SCT010 TN24/2506Z TX26/2511Z
Forecast period: 0000 to 1200 UTC 25 April 2019
Forecast type: FROM: standard forecast or significant change
Winds: from the ESE (110 degrees) at 5 MPH (4 knots; 2.1 m/s)
Visibility: 6 or more miles 10+ km)
Ceiling: at least 12,000 feet AGL
Clouds: scattered clouds at 1000 feet AGL
Weather: no significant weather forecast for this period
Text: PROB30 2510/2512 BKN010 RMK PEU
Forecast period: 1000 to 1200 UTC 25 April 2019
Forecast type: PROBABLE: 30 percent likelihood of the following during this time
Visibility: missing
Ceiling: 1000 feet AGL
Clouds: broken clouds at 1000 feet AGL
Weather: no significant weather forecast for this period

 MAPA DO AEROPORTO

 INFORMAÇÕES DA PISTA
Pista 5 Tamanho da pista 5266 ft Largura da pista 98 ft
Elevação da pista 0 ft Ranhura da pista 0 ft Proa da pista 0
Pista 23 Tamanho da pista 5266 ft Largura da pista 98 ft
Elevação da pista 0 ft Ranhura da pista 0 ft Proa da pista 0

 FREQUÊNCIAS DO AEROPORTO
Tipo TWR Nome TWR Frequência 118.4 MHZ

 AUXÍLIOS DE NAVEGAÇÃO PRÓXIMOS AO AEROPORTO
Tipo NDB Nome Itaituba Frequência 250 KHZ





Powered by Virtual Airlines Manager [v2.6.2]